1897 NOT_NAMED (1897005S10135)


IBTrACS version v04r00. Visit IBTrACS website for data access.
Please direct all questions to the IBTrACS Q and A forum

Storm track - Intensity - Wind Radii - Intensity Data - Source Data - All data

Summary Information

Storm ID 1897005S10135
Start Jan 4 12Z
Landfall Jan 6 06Z, Jan 7 03Z, Jan 7 09Z
End Jan 13 00Z
ATCF IDs
Track status Best track data.

Storm track plot

Map of storm track

Intensity plots

No Intensity information for this storm


Radial wind information

No radial wind information for this storm


Position and Intensity Table

BASIN ISO_TIME_________ NATURE LAT LON
degrees north degrees east
SP 1897-01-04 12:00:00 NR -10.10 135.30
SI 15:00:00 NR -10.28 134.90
SI 18:00:00 NR -10.44 134.52
SI 21:00:00 NR -10.59 134.18
SI 1897-01-05 00:00:00 NR -10.70 133.90
SI 03:00:00 NR -10.78 133.69
SI 06:00:00 NR -10.83 133.53
SI 09:00:00 NR -10.87 133.41
SI 12:00:00 NR -10.90 133.30
SI 15:00:00 NR -10.94 133.19
SI 18:00:00 NR -10.98 133.09
SI 21:00:00 NR -11.03 132.96
SI 1897-01-06 00:00:00 NR -11.10 132.80
SI 03:00:00 NR -11.20 132.56
SI 06:00:00 NR -11.31 132.27
SI 09:00:00 NR -11.45 131.98
SI 12:00:00 NR -11.60 131.70
SI 15:00:00 NR -11.75 131.47
SI 18:00:00 NR -11.92 131.25
SI 21:00:00 NR -12.10 131.07
SI 1897-01-07 00:00:00 NR -12.30 130.90
SI 03:00:00 NR -12.51 130.73
SI 06:00:00 NR -12.73 130.58
SI 09:00:00 NR -12.97 130.47
SI 12:00:00 NR -13.20 130.40
SI 15:00:00 NR -13.41 130.30
SI 18:00:00 NR -13.63 130.25
SI 21:00:00 NR -13.85 130.30
SI 1897-01-08 00:00:00 NR -14.10 130.50
SI 03:00:00 NR -14.39 130.89
SI 06:00:00 NR -14.69 131.43
SI 09:00:00 NR -15.00 132.06
SI 12:00:00 NR -15.30 132.70
SI 15:00:00 NR -15.57 133.28
SI 18:00:00 NR -15.83 133.87
SI 21:00:00 NR -16.07 134.45
SP 1897-01-09 00:00:00 NR -16.30 135.00
SP 03:00:00 NR -16.52 135.53
SP 06:00:00 NR -16.73 136.03
SP 09:00:00 NR -16.92 136.48
SP 12:00:00 NR -17.10 136.90
SP 15:00:00 NR -17.28 137.28
SP 18:00:00 NR -17.44 137.62
SP 21:00:00 NR -17.58 137.92
SP 1897-01-10 00:00:00 NR -17.70 138.20
SP 03:00:00 NR -17.80 138.48
SP 06:00:00 NR -17.89 138.73
SP 09:00:00 NR -17.95 138.97
SP 12:00:00 NR -18.00 139.20
SP 15:00:00 NR -18.04 139.43
SP 18:00:00 NR -18.06 139.66
SP 21:00:00 NR -18.08 139.88
SP 1897-01-11 00:00:00 NR -18.10 140.10
SP 03:00:00 NR -18.13 140.33
SP 06:00:00 NR -18.16 140.56
SP 09:00:00 NR -18.18 140.78
SP 12:00:00 NR -18.20 141.00
SP 15:00:00 NR -18.21 141.22
SP 18:00:00 NR -18.21 141.43
SP 21:00:00 NR -18.20 141.63
SP 1897-01-12 00:00:00 NR -18.20 141.80
SP 03:00:00 NR -18.20 141.94
SP 06:00:00 NR -18.21 142.06
SP 09:00:00 NR -18.21 142.18
SP 12:00:00 NR -18.20 142.30
SP 15:00:00 NR -18.18 142.43
SP 18:00:00 NR -18.16 142.58
SP 21:00:00 NR -18.13 142.74
SP 1897-01-13 00:00:00 NR -18.10 142.90

Source Information

Agency Information
USA
TOKYO
CMA
HKO
NEWDELHI
REUNION
BOM
NADI
WELLINGTON
DS824
TD9636 cons_worldwide_trop_cyclone_18710101-19891231-006:Line=1
TD9635
NEUMANN
MLC

All available IBTrACS Data

SEASON BASIN SUBBASIN ISO_TIME_________ NATURE LAT LON DIST2LAND LANDFALL IFLAG USA SSHS TD9636 LAT TD9636 LON TD9636 STAGE STORM SPEED STORM DIR
Year degrees north degrees east km km 1 degrees north degrees east kts degrees
1897 SP EA 1897-01-04 12:00:00 NR -10.10 135.30 226 201 __________O___ -1 -10.10 135.30 7 9 246
1897 SI WA 15:00:00 NR -10.28 134.90 201 174 __________P___ -1 -10.28 134.90 7 8 246
1897 SI WA 18:00:00 NR -10.44 134.52 174 141 __________P___ -1 -10.44 134.52 7 8 246
1897 SI WA 21:00:00 NR -10.59 134.18 141 123 __________P___ -1 -10.59 134.18 7 7 247
1897 SI WA 1897-01-05 00:00:00 NR -10.70 133.90 123 109 __________O___ -1 -10.70 133.90 7 5 248
1897 SI WA 03:00:00 NR -10.78 133.69 109 93 __________P___ -1 -10.78 133.69 7 4 250
1897 SI WA 06:00:00 NR -10.83 133.53 93 78 __________P___ -1 -10.83 133.53 7 3 252
1897 SI WA 09:00:00 NR -10.87 133.41 78 71 __________P___ -1 -10.87 133.41 7 2 253
1897 SI WA 12:00:00 NR -10.90 133.30 71 64 __________O___ -1 -10.90 133.30 7 2 251
1897 SI WA 15:00:00 NR -10.94 133.19 64 49 __________P___ -1 -10.94 133.19 7 2 250
1897 SI WA 18:00:00 NR -10.98 133.09 49 46 __________P___ -1 -10.98 133.09 7 2 248
1897 SI WA 21:00:00 NR -11.03 132.96 46 33 __________P___ -1 -11.03 132.96 7 3 247
1897 SI WA 1897-01-06 00:00:00 NR -11.10 132.80 35 15 __________O___ -1 -11.10 132.80 7 4 247
1897 SI WA 03:00:00 NR -11.20 132.56 15 0 __________P___ -1 -11.20 132.56 7 6 248
1897 SI WA 06:00:00 NR -11.31 132.27 0 0 __________P___ -1 -11.31 132.27 7 6 246
1897 SI WA 09:00:00 NR -11.45 131.98 0 0 __________P___ -1 -11.45 131.98 7 6 243
1897 SI WA 12:00:00 NR -11.60 131.70 21 10 __________O___ -1 -11.60 131.70 7 6 239
1897 SI WA 15:00:00 NR -11.75 131.47 22 11 __________P___ -1 -11.75 131.47 7 5 234
1897 SI WA 18:00:00 NR -11.92 131.25 22 15 __________P___ -1 -11.92 131.25 7 5 228
1897 SI WA 21:00:00 NR -12.10 131.07 15 10 __________P___ -1 -12.10 131.07 7 5 222
1897 SI WA 1897-01-07 00:00:00 NR -12.30 130.90 10 0 __________O___ -1 -12.30 130.90 7 5 219
1897 SI WA 03:00:00 NR -12.51 130.73 0 0 __________P___ -1 -12.51 130.73 7 5 215
1897 SI WA 06:00:00 NR -12.73 130.58 10 0 __________P___ -1 -12.73 130.58 7 5 209
1897 SI WA 09:00:00 NR -12.97 130.47 0 0 __________P___ -1 -12.97 130.47 7 5 201
1897 SI WA 12:00:00 NR -13.20 130.40 0 0 __________O___ -1 -13.20 130.40 7 5 201
1897 SI WA 15:00:00 NR -13.41 130.30 0 0 __________P___ -1 -13.41 130.30 7 5 199
1897 SI WA 18:00:00 NR -13.63 130.25 0 0 __________P___ -1 -13.63 130.25 7 4 178
1897 SI WA 21:00:00 NR -13.85 130.30 0 0 __________P___ -1 -13.85 130.30 7 5 153
1897 SI WA 1897-01-08 00:00:00 NR -14.10 130.50 0 0 __________O___ -1 -14.10 130.50 7 8 133
1897 SI WA 03:00:00 NR -14.39 130.89 0 0 __________P___ -1 -14.39 130.89 7 11 123
1897 SI WA 06:00:00 NR -14.69 131.43 0 0 __________P___ -1 -14.69 131.43 7 13 119
1897 SI WA 09:00:00 NR -15.00 132.06 0 0 __________P___ -1 -15.00 132.06 7 14 116
1897 SI WA 12:00:00 NR -15.30 132.70 0 0 __________O___ -1 -15.30 132.70 7 13 116
1897 SI WA 15:00:00 NR -15.57 133.28 0 0 __________P___ -1 -15.57 133.28 7 13 115
1897 SI WA 18:00:00 NR -15.83 133.87 0 0 __________P___ -1 -15.83 133.87 7 12 114
1897 SI WA 21:00:00 NR -16.07 134.45 0 0 __________P___ -1 -16.07 134.45 7 12 113
1897 SP EA 1897-01-09 00:00:00 NR -16.30 135.00 0 0 __________O___ -1 -16.30 135.00 7 11 113
1897 SP EA 03:00:00 NR -16.52 135.53 0 0 __________P___ -1 -16.52 135.53 7 11 114
1897 SP EA 06:00:00 NR -16.73 136.03 0 0 __________P___ -1 -16.73 136.03 7 10 114
1897 SP EA 09:00:00 NR -16.92 136.48 0 0 __________P___ -1 -16.92 136.48 7 9 114
1897 SP EA 12:00:00 NR -17.10 136.90 0 0 __________O___ -1 -17.10 136.90 7 8 115
1897 SP EA 15:00:00 NR -17.28 137.28 0 0 __________P___ -1 -17.28 137.28 7 8 116
1897 SP EA 18:00:00 NR -17.44 137.62 0 0 __________P___ -1 -17.44 137.62 7 7 116
1897 SP EA 21:00:00 NR -17.58 137.92 0 0 __________P___ -1 -17.58 137.92 7 6 115
1897 SP EA 1897-01-10 00:00:00 NR -17.70 138.20 0 0 __________O___ -1 -17.70 138.20 7 6 113
1897 SP EA 03:00:00 NR -17.80 138.48 0 0 __________P___ -1 -17.80 138.48 7 5 110
1897 SP EA 06:00:00 NR -17.89 138.73 0 0 __________P___ -1 -17.89 138.73 7 5 107
1897 SP EA 09:00:00 NR -17.95 138.97 0 0 __________P___ -1 -17.95 138.97 7 5 104
1897 SP EA 12:00:00 NR -18.00 139.20 0 0 __________O___ -1 -18.00 139.20 7 4 101
1897 SP EA 15:00:00 NR -18.04 139.43 0 0 __________P___ -1 -18.04 139.43 7 4 98
1897 SP EA 18:00:00 NR -18.06 139.66 0 0 __________P___ -1 -18.06 139.66 7 4 96
1897 SP EA 21:00:00 NR -18.08 139.88 0 0 __________P___ -1 -18.08 139.88 7 4 95
1897 SP EA 1897-01-11 00:00:00 NR -18.10 140.10 0 0 __________O___ -1 -18.10 140.10 7 4 96
1897 SP EA 03:00:00 NR -18.13 140.33 0 0 __________P___ -1 -18.13 140.33 7 4 98
1897 SP EA 06:00:00 NR -18.16 140.56 0 0 __________P___ -1 -18.16 140.56 7 4 97
1897 SP EA 09:00:00 NR -18.18 140.78 0 0 __________P___ -1 -18.18 140.78 7 4 96
1897 SP EA 12:00:00 NR -18.20 141.00 0 0 __________O___ -1 -18.20 141.00 7 4 93
1897 SP EA 15:00:00 NR -18.21 141.22 0 0 __________P___ -1 -18.21 141.22 7 4 91
1897 SP EA 18:00:00 NR -18.21 141.43 0 0 __________P___ -1 -18.21 141.43 7 4 90
1897 SP EA 21:00:00 NR -18.20 141.63 0 0 __________P___ -1 -18.20 141.63 7 4 89
1897 SP EA 1897-01-12 00:00:00 NR -18.20 141.80 0 0 __________O___ -1 -18.20 141.80 7 3 90
1897 SP EA 03:00:00 NR -18.20 141.94 0 0 __________P___ -1 -18.20 141.94 7 3 92
1897 SP EA 06:00:00 NR -18.21 142.06 0 0 __________P___ -1 -18.21 142.06 7 2 91
1897 SP EA 09:00:00 NR -18.21 142.18 0 0 __________P___ -1 -18.21 142.18 7 2 88
1897 SP EA 12:00:00 NR -18.20 142.30 0 0 __________O___ -1 -18.20 142.30 7 2 84
1897 SP EA 15:00:00 NR -18.18 142.43 0 0 __________P___ -1 -18.18 142.43 7 3 82
1897 SP EA 18:00:00 NR -18.16 142.58 0 0 __________P___ -1 -18.16 142.58 7 3 80
1897 SP EA 21:00:00 NR -18.13 142.74 0 0 __________P___ -1 -18.13 142.74 7 3 79
1897 SP EA 1897-01-13 00:00:00 NR -18.10 142.90 0 __________O___ -1 -18.10 142.90 7 3 79